createdAt,value
2023-02-11T00:01:07.164Z,10.95
2023-02-11T00:03:34.441Z,9.70
2023-02-11T00:06:04.403Z,10.70
2023-02-11T00:08:31.985Z,8.63
2023-02-11T00:10:59.212Z,13.00
2023-02-11T00:13:26.848Z,11.55
2023-02-11T00:15:55.906Z,9.65
2023-02-11T00:18:23.436Z,9.32
2023-02-11T00:20:50.598Z,10.00
2023-02-11T00:23:17.781Z,9.70
2023-02-11T00:25:45.955Z,9.70
2023-02-11T00:28:13.126Z,9.15
2023-02-11T00:30:40.627Z,9.55
2023-02-11T00:33:09.158Z,8.82
2023-02-11T00:35:37.788Z,10.15
2023-02-11T00:38:04.876Z,10.93
2023-02-11T00:40:32.032Z,8.98
2023-02-11T00:42:59.290Z,10.95
2023-02-11T00:45:26.405Z,12.00
2023-02-11T00:47:53.505Z,10.00
2023-02-11T00:50:22.120Z,9.02
2023-02-11T00:52:49.498Z,9.88
2023-02-11T00:55:16.658Z,9.80
2023-02-11T00:57:43.850Z,9.70
2023-02-11T01:00:14.994Z,10.82
2023-02-11T01:02:42.082Z,9.70
2023-02-11T01:05:09.278Z,8.63
2023-02-11T01:07:37.804Z,9.05
2023-02-11T01:10:05.407Z,9.35
2023-02-11T01:12:35.254Z,9.82
2023-02-11T01:15:03.847Z,9.32
2023-02-11T01:17:30.966Z,9.77
2023-02-11T01:19:58.216Z,8.93
2023-02-11T01:22:25.328Z,9.63
2023-02-11T01:24:53.796Z,9.80
2023-02-11T01:27:20.918Z,11.60
2023-02-11T01:29:48.042Z,9.27
2023-02-11T01:32:15.157Z,8.90
2023-02-11T01:34:42.283Z,10.48
2023-02-11T01:37:09.406Z,8.30
2023-02-11T01:39:36.526Z,9.65
2023-02-11T01:42:05.778Z,9.93
2023-02-11T01:44:36.680Z,9.38
2023-02-11T01:47:04.130Z,10.57
2023-02-11T01:49:34.406Z,9.30
2023-02-11T01:52:05.696Z,9.60
2023-02-11T01:54:36.269Z,8.63
2023-02-11T01:57:06.371Z,9.82
2023-02-11T01:59:39.049Z,9.07
2023-02-11T02:02:10.142Z,10.65
2023-02-11T02:04:44.028Z,9.70
2023-02-11T02:07:17.142Z,9.18
2023-02-11T02:09:49.621Z,10.32
2023-02-11T02:12:18.101Z,9.32
2023-02-11T02:14:45.194Z,10.00
2023-02-11T02:17:24.964Z,9.07
2023-02-11T02:20:18.434Z,9.35
2023-02-11T02:23:28.489Z,8.50
2023-02-11T02:26:28.034Z,8.32
2023-02-11T02:29:23.449Z,8.43
2023-02-11T02:32:30.845Z,12.40
2023-02-11T02:35:09.436Z,8.90
2023-02-11T02:37:40.439Z,8.70
2023-02-11T02:40:12.694Z,8.48
2023-02-11T02:42:41.240Z,9.10
2023-02-11T02:45:10.819Z,8.57
2023-02-11T02:47:37.953Z,7.90
2023-02-11T02:50:08.156Z,8.98
2023-02-11T02:52:42.205Z,7.95
2023-02-11T02:55:17.572Z,9.98
2023-02-11T02:58:03.113Z,8.57
2023-02-11T03:00:36.951Z,8.82
2023-02-11T03:03:17.540Z,8.93
2023-02-11T03:05:53.371Z,9.35
2023-02-11T03:08:28.132Z,8.50
2023-02-11T03:10:56.561Z,10.32
2023-02-11T03:13:28.874Z,7.78
2023-02-11T03:15:58.413Z,10.00
2023-02-11T03:18:29.221Z,10.93
2023-02-11T03:21:00.470Z,7.80
2023-02-11T03:23:30.760Z,7.63
2023-02-11T03:26:02.857Z,8.70
2023-02-11T03:28:33.946Z,8.57
2023-02-11T03:31:09.682Z,8.15
2023-02-11T03:33:42.837Z,7.53
2023-02-11T03:36:14.856Z,9.90
2023-02-11T03:38:47.246Z,7.28
2023-02-11T03:41:17.588Z,10.30
2023-02-11T03:43:48.678Z,9.38
2023-02-11T03:46:19.502Z,8.00
2023-02-11T03:48:49.564Z,8.23
2023-02-11T03:51:20.638Z,7.40
2023-02-11T03:53:49.680Z,8.68
2023-02-11T03:56:21.179Z,8.90
2023-02-11T03:58:49.101Z,8.27
2023-02-11T04:01:16.345Z,7.65
2023-02-11T04:03:43.509Z,9.13
2023-02-11T04:06:10.709Z,7.93
2023-02-11T04:08:39.157Z,7.75
2023-02-11T04:11:06.281Z,8.13
2023-02-11T04:13:33.766Z,6.60
2023-02-11T04:16:00.904Z,7.70
2023-02-11T04:18:28.001Z,8.98
2023-02-11T04:20:55.280Z,8.57
2023-02-11T04:23:22.352Z,7.60
2023-02-11T04:25:51.069Z,7.95
2023-02-11T04:28:18.549Z,9.00
2023-02-11T04:30:45.693Z,8.15
2023-02-11T04:33:12.865Z,8.98
2023-02-11T04:35:40.115Z,8.43
2023-02-11T04:38:07.225Z,8.23
2023-02-11T04:40:34.352Z,7.60
2023-02-11T04:43:02.852Z,7.70
2023-02-11T04:45:29.961Z,8.38
2023-02-11T04:47:57.062Z,9.20
2023-02-11T04:50:24.384Z,8.48
2023-02-11T04:52:51.480Z,8.90
2023-02-11T04:55:18.824Z,7.55
2023-02-11T04:57:45.935Z,10.48
2023-02-11T05:00:15.968Z,8.38
2023-02-11T05:02:43.052Z,7.90
2023-02-11T05:05:10.169Z,8.25
2023-02-11T05:07:37.250Z,8.20
2023-02-11T05:10:04.587Z,7.53
2023-02-11T05:12:31.875Z,8.35
2023-02-11T05:14:58.983Z,7.88
2023-02-11T05:17:27.450Z,8.55
2023-02-11T05:19:54.990Z,11.23
2023-02-11T05:22:22.164Z,7.93
2023-02-11T05:24:50.186Z,6.55
2023-02-11T05:27:17.310Z,9.02
2023-02-11T05:29:44.409Z,8.77
2023-02-11T05:32:11.529Z,8.05
2023-02-11T05:34:39.998Z,8.95
2023-02-11T05:37:07.137Z,10.52
2023-02-11T05:39:34.249Z,11.60
2023-02-11T05:42:01.422Z,9.02
2023-02-11T05:44:28.511Z,11.07
2023-02-11T05:46:55.646Z,10.68
2023-02-11T05:49:22.817Z,11.32
2023-02-11T05:51:51.314Z,7.35
2023-02-11T05:54:18.453Z,9.07
2023-02-11T05:56:45.600Z,8.25
2023-02-11T05:59:14.548Z,8.07
2023-02-11T06:01:41.775Z,10.95
2023-02-11T06:04:08.902Z,9.07
2023-02-11T06:06:36.170Z,8.70
2023-02-11T06:09:04.945Z,16.80
2023-02-11T06:11:32.061Z,149.02
2023-02-11T06:13:59.135Z,1999.90
2023-02-11T06:16:26.302Z,1999.90
2023-02-11T06:18:53.430Z,662.70
2023-02-11T06:21:20.532Z,407.05
2023-02-11T06:23:47.758Z,435.70
2023-02-11T06:26:21.144Z,406.92
2023-02-11T06:28:48.497Z,388.63
2023-02-11T06:31:16.535Z,358.88
2023-02-11T06:33:43.985Z,363.63
2023-02-11T06:36:16.711Z,344.50
2023-02-11T06:38:43.949Z,328.95
2023-02-11T06:41:11.136Z,322.20
2023-02-11T06:43:40.290Z,319.13
2023-02-11T06:46:08.410Z,322.73
2023-02-11T06:48:36.409Z,310.92
2023-02-11T06:51:05.461Z,303.80
2023-02-11T06:53:35.309Z,290.98
2023-02-11T06:56:03.729Z,285.73
2023-02-11T06:58:30.824Z,297.30
2023-02-11T07:00:59.560Z,272.00
2023-02-11T07:03:26.656Z,262.80
2023-02-11T07:05:53.831Z,262.52
2023-02-11T07:08:20.996Z,253.90
2023-02-11T07:10:48.107Z,253.90
2023-02-11T07:13:15.210Z,238.95
2023-02-11T07:15:42.309Z,249.77
2023-02-11T07:18:13.023Z,246.00
2023-02-11T07:20:41.413Z,245.80
2023-02-11T07:23:08.554Z,233.63
2023-02-11T07:25:36.095Z,231.80
2023-02-11T07:28:03.639Z,217.45
2023-02-11T07:30:30.787Z,229.18
2023-02-11T07:32:57.892Z,218.52
2023-02-11T07:35:26.486Z,215.45
2023-02-11T07:37:53.665Z,220.10
2023-02-11T07:40:20.938Z,206.57
2023-02-11T07:42:48.026Z,194.13
2023-02-11T07:45:15.260Z,200.60
2023-02-11T07:47:42.371Z,200.30
2023-02-11T07:50:09.755Z,185.27
2023-02-11T07:52:38.226Z,186.38
2023-02-11T07:55:06.052Z,171.10
2023-02-11T07:57:33.098Z,174.23
2023-02-11T08:00:00.211Z,169.48
2023-02-11T08:02:27.621Z,159.73
2023-02-11T08:04:54.834Z,163.77
2023-02-11T08:07:22.053Z,156.38
2023-02-11T08:09:50.494Z,153.77
2023-02-11T08:12:17.585Z,154.93
2023-02-11T08:14:44.706Z,142.98
2023-02-11T08:17:11.813Z,144.32
2023-02-11T08:19:39.197Z,127.22
2023-02-11T08:22:06.574Z,118.88
2023-02-11T08:24:33.668Z,110.50
2023-02-11T08:27:02.123Z,103.72
2023-02-11T08:29:29.308Z,107.05
2023-02-11T08:31:56.478Z,98.85
2023-02-11T08:34:23.608Z,92.40
2023-02-11T08:36:50.994Z,91.28
2023-02-11T08:39:20.879Z,88.88
2023-02-11T08:41:50.101Z,93.50
2023-02-11T08:44:19.611Z,90.57
2023-02-11T08:46:47.439Z,91.80
2023-02-11T08:49:14.808Z,76.22
2023-02-11T08:51:42.652Z,68.70
2023-02-11T08:54:09.764Z,67.40
2023-02-11T08:56:37.984Z,63.17
2023-02-11T08:59:06.304Z,60.50
2023-02-11T09:01:35.135Z,58.30
2023-02-11T09:04:02.372Z,55.85
2023-02-11T09:06:29.906Z,59.35
2023-02-11T09:08:58.165Z,58.28
2023-02-11T09:11:29.292Z,48.75
2023-02-11T09:13:56.972Z,49.47
2023-02-11T09:16:26.115Z,51.63
2023-02-11T09:18:56.653Z,53.53
2023-02-11T09:21:23.828Z,49.17
2023-02-11T09:23:51.213Z,70.55
2023-02-11T09:26:20.707Z,50.88
2023-02-11T09:28:48.577Z,50.65
2023-02-11T09:31:17.967Z,52.70
2023-02-11T09:33:47.213Z,57.60
2023-02-11T09:36:17.732Z,50.50
2023-02-11T09:38:45.560Z,46.80
2023-02-11T09:41:35.360Z,49.28
2023-02-11T09:44:06.324Z,48.67
2023-02-11T09:46:39.489Z,37.67
2023-02-11T09:49:07.606Z,43.90
2023-02-11T09:51:43.781Z,45.47
2023-02-11T09:54:16.736Z,44.90
2023-02-11T09:56:43.846Z,45.22
2023-02-11T09:59:14.816Z,43.40
2023-02-11T10:01:47.256Z,39.22
2023-02-11T10:04:24.313Z,35.40
2023-02-11T10:06:55.645Z,36.70
2023-02-11T10:09:45.765Z,35.90
2023-02-11T10:12:29.844Z,31.35
2023-02-11T10:15:15.027Z,39.28
2023-02-11T10:17:51.728Z,33.72
2023-02-11T10:20:28.840Z,32.15
2023-02-11T10:22:59.825Z,36.88
2023-02-11T10:25:34.510Z,32.25
2023-02-11T10:28:10.152Z,34.53
2023-02-11T10:30:42.063Z,41.38
2023-02-11T10:33:19.936Z,32.55
2023-02-11T10:35:47.260Z,28.98
2023-02-11T10:38:15.701Z,31.80
2023-02-11T10:40:43.042Z,33.50
2023-02-11T10:43:13.535Z,32.58
2023-02-11T10:45:44.794Z,30.55
2023-02-11T10:48:38.332Z,27.27
2023-02-11T10:51:16.086Z,25.20
2023-02-11T10:53:45.398Z,25.15
2023-02-11T10:56:20.035Z,26.17
2023-02-11T10:58:55.978Z,33.72
2023-02-11T11:01:25.128Z,27.98
2023-02-11T11:03:52.989Z,31.90
2023-02-11T11:06:30.350Z,26.85
2023-02-11T11:08:59.069Z,25.60
2023-02-11T11:11:26.918Z,27.42
2023-02-11T11:13:57.192Z,27.77
2023-02-11T11:16:26.185Z,25.95
2023-02-11T11:19:13.866Z,27.38
2023-02-11T11:21:42.449Z,24.95
2023-02-11T11:24:18.403Z,22.30
2023-02-11T11:26:48.631Z,24.88
2023-02-11T11:29:18.959Z,25.00
2023-02-11T11:31:49.425Z,23.35
2023-02-11T11:34:26.875Z,21.70
2023-02-11T11:36:56.159Z,22.00
2023-02-11T11:39:27.613Z,23.00
2023-02-11T11:41:56.925Z,18.73
2023-02-11T11:44:28.303Z,20.48
2023-02-11T11:47:20.042Z,18.40
2023-02-11T11:49:55.436Z,20.10
2023-02-11T11:52:37.445Z,20.75
2023-02-11T11:55:15.986Z,16.70
2023-02-11T11:57:43.399Z,18.60
2023-02-11T12:00:19.015Z,22.38
2023-02-11T12:03:15.494Z,19.20
2023-02-11T12:05:52.109Z,18.83
2023-02-11T12:08:29.224Z,17.27
2023-02-11T12:11:12.170Z,17.42
2023-02-11T12:14:02.389Z,17.80
2023-02-11T12:16:43.453Z,15.15
2023-02-11T12:19:45.614Z,15.43
2023-02-11T12:22:26.435Z,14.55
2023-02-11T12:25:09.640Z,19.33
2023-02-11T12:27:49.550Z,16.40
2023-02-11T12:30:28.691Z,15.40
2023-02-11T12:33:04.582Z,15.00
2023-02-11T12:35:43.386Z,17.02
2023-02-11T12:38:22.795Z,13.88
2023-02-11T12:41:01.799Z,15.95
2023-02-11T12:43:36.954Z,15.52
2023-02-11T12:46:33.918Z,13.80
2023-02-11T12:49:33.489Z,16.02
2023-02-11T12:52:15.797Z,13.50
2023-02-11T12:54:48.673Z,13.07
2023-02-11T12:57:20.793Z,15.55
2023-02-11T12:59:57.224Z,14.75
2023-02-11T13:02:33.961Z,15.27
2023-02-11T13:05:08.255Z,13.30
2023-02-11T13:07:39.201Z,14.35
2023-02-11T13:10:22.382Z,13.60
2023-02-11T13:12:51.504Z,13.30
2023-02-11T13:15:19.932Z,16.25
2023-02-11T13:17:56.685Z,13.63
2023-02-11T13:20:39.049Z,12.35
2023-02-11T13:23:15.507Z,16.02
2023-02-11T13:25:50.442Z,11.13
2023-02-11T13:28:32.201Z,11.82
2023-02-11T13:31:01.223Z,12.20
2023-02-11T13:33:33.657Z,12.40
2023-02-11T13:36:21.727Z,14.35
2023-02-11T13:38:59.367Z,13.13
2023-02-11T13:41:33.284Z,13.85
2023-02-11T13:44:03.805Z,10.70
2023-02-11T13:46:49.996Z,11.45
2023-02-11T13:49:23.118Z,11.23
2023-02-11T13:51:51.473Z,11.00
2023-02-11T13:54:26.457Z,11.30
2023-02-11T13:57:33.749Z,14.45
2023-02-11T14:00:02.995Z,12.38
2023-02-11T14:02:33.839Z,9.55
2023-02-11T14:05:22.155Z,11.88
2023-02-11T14:08:14.873Z,12.88
2023-02-11T14:10:50.037Z,12.35
2023-02-11T14:13:23.969Z,9.90
2023-02-11T14:16:07.385Z,10.20
2023-02-11T14:19:03.801Z,9.82
2023-02-11T14:21:37.434Z,10.70
2023-02-11T14:24:47.212Z,11.43
2023-02-11T14:27:21.268Z,9.98
2023-02-11T14:30:06.758Z,9.80
2023-02-11T14:32:45.689Z,11.48
2023-02-11T14:35:23.494Z,12.07
2023-02-11T14:38:00.817Z,11.68
2023-02-11T14:40:31.690Z,10.85
2023-02-11T14:43:07.625Z,9.50
2023-02-11T14:45:36.915Z,13.18
2023-02-11T14:48:07.781Z,12.00
2023-02-11T14:50:41.695Z,11.57
2023-02-11T14:53:15.396Z,9.73
2023-02-11T14:55:45.500Z,11.10
2023-02-11T14:58:15.926Z,10.13
2023-02-11T15:00:52.240Z,9.63
2023-02-11T15:03:34.527Z,11.50
2023-02-11T15:06:06.023Z,13.52
2023-02-11T15:08:36.482Z,10.65
2023-02-11T15:11:10.682Z,10.35
2023-02-11T15:16:07.929Z,9.77
2023-02-11T15:18:38.882Z,10.02
2023-02-11T15:21:08.310Z,12.45
2023-02-11T15:23:35.850Z,8.75
2023-02-11T15:26:03.426Z,11.30
2023-02-11T15:28:33.029Z,10.07
2023-02-11T15:31:02.468Z,11.80
2023-02-11T15:33:30.579Z,8.63
2023-02-11T15:35:58.759Z,12.50
2023-02-11T15:38:27.424Z,9.98
2023-02-11T15:40:57.103Z,9.23
2023-02-11T15:43:24.960Z,12.60
2023-02-11T15:45:59.886Z,12.80
2023-02-11T15:48:35.102Z,9.98
2023-02-11T15:51:08.166Z,8.88
2023-02-11T15:53:40.226Z,9.10
2023-02-11T15:56:15.708Z,10.57
2023-02-11T15:58:45.337Z,7.65
2023-02-11T16:01:12.663Z,8.35
2023-02-11T16:03:41.804Z,9.02
2023-02-11T16:06:20.056Z,10.77
2023-02-11T16:08:59.556Z,9.60
2023-02-11T16:11:29.155Z,9.75
2023-02-11T16:13:56.709Z,12.80
2023-02-11T16:16:27.472Z,8.85
2023-02-11T16:19:04.817Z,8.73
2023-02-11T16:21:35.742Z,8.02
2023-02-11T16:24:06.621Z,9.48
2023-02-11T16:26:37.665Z,10.38
2023-02-11T16:29:07.893Z,8.60
2023-02-11T16:31:37.292Z,9.40
2023-02-11T16:34:13.298Z,10.93
2023-02-11T16:36:40.458Z,8.07
2023-02-11T16:39:09.170Z,10.23
2023-02-11T16:41:36.458Z,10.82
2023-02-11T16:44:03.627Z,9.77
2023-02-11T16:46:31.696Z,12.07
2023-02-11T16:49:05.893Z,8.85
2023-02-11T16:53:59.825Z,13.63
2023-02-11T16:56:29.002Z,14.68
2023-02-11T16:58:56.136Z,20.40
2023-02-11T17:01:23.433Z,21.17
2023-02-11T17:03:50.731Z,19.20
2023-02-11T17:06:17.830Z,25.98
2023-02-11T17:08:44.949Z,17.42
2023-02-11T17:11:12.062Z,20.10
2023-02-11T17:13:40.487Z,18.85
2023-02-11T17:16:15.917Z,25.50
2023-02-11T17:18:43.113Z,19.27
2023-02-11T17:21:10.238Z,14.45
2023-02-11T17:23:37.441Z,18.35
2023-02-11T17:26:05.345Z,13.45
2023-02-11T17:28:32.655Z,13.35
2023-02-11T17:31:01.380Z,14.95
2023-02-11T17:33:28.495Z,12.60
2023-02-11T17:35:55.662Z,13.13
2023-02-11T17:38:22.774Z,14.27
2023-02-11T17:40:57.338Z,14.55
2023-02-11T17:43:24.702Z,13.02
2023-02-11T17:45:52.169Z,9.70
2023-02-11T17:48:21.556Z,10.50
2023-02-11T17:50:48.780Z,10.25
2023-02-11T17:53:15.887Z,8.80
2023-02-11T17:55:43.037Z,10.43
2023-02-11T17:58:10.391Z,8.18
2023-02-11T18:00:37.494Z,8.25
2023-02-11T18:03:04.674Z,9.35
2023-02-11T18:05:35.976Z,8.52
2023-02-11T18:08:04.002Z,8.73
2023-02-11T18:10:31.615Z,10.15
2023-02-11T18:12:58.786Z,12.20
2023-02-11T18:15:25.882Z,10.02
2023-02-11T18:17:52.990Z,10.35
2023-02-11T18:20:20.157Z,9.60
2023-02-11T18:22:48.622Z,10.05
2023-02-11T18:25:16.665Z,9.10
2023-02-11T18:27:43.774Z,12.00
2023-02-11T18:30:15.606Z,9.13
2023-02-11T18:32:43.223Z,9.70
2023-02-11T18:35:12.654Z,12.98
2023-02-11T18:37:41.766Z,12.02
2023-02-11T18:40:12.178Z,12.35
2023-02-11T18:42:39.682Z,13.30
2023-02-11T18:45:07.856Z,10.10
2023-02-11T18:47:36.858Z,12.30
2023-02-11T18:50:04.084Z,7.97
2023-02-11T18:52:31.302Z,12.32
2023-02-11T18:54:58.428Z,9.88
2023-02-11T18:57:26.934Z,9.93
2023-02-11T18:59:54.192Z,10.23
2023-02-11T19:02:21.306Z,12.48
2023-02-11T19:04:48.506Z,9.80
2023-02-11T19:07:15.681Z,10.00
2023-02-11T19:09:43.120Z,9.38
2023-02-11T19:12:10.226Z,10.18
2023-02-11T19:14:38.694Z,8.48
2023-02-11T19:17:07.622Z,10.55
2023-02-11T19:19:35.925Z,9.68
2023-02-11T19:22:05.067Z,8.00
2023-02-11T19:24:32.755Z,8.15
2023-02-11T19:27:01.911Z,12.60
2023-02-11T19:29:30.307Z,7.75
2023-02-11T19:31:58.910Z,12.10
2023-02-11T19:34:26.062Z,8.98
2023-02-11T19:36:53.457Z,9.70
2023-02-11T19:39:20.923Z,10.60
2023-02-11T19:41:48.037Z,10.35
2023-02-11T19:44:15.146Z,8.70
2023-02-11T19:46:42.828Z,8.65
2023-02-11T19:49:14.144Z,10.98
2023-02-11T19:51:41.433Z,10.38
2023-02-11T19:54:08.554Z,9.80
2023-02-11T19:56:35.666Z,8.82
2023-02-11T19:59:03.466Z,8.90
2023-02-11T20:01:30.730Z,10.80
2023-02-11T20:03:57.882Z,8.52
2023-02-11T20:06:28.718Z,11.02
2023-02-11T20:08:58.593Z,9.32
2023-02-11T20:11:26.973Z,10.02
2023-02-11T20:13:54.205Z,8.27
2023-02-11T20:16:26.947Z,7.70
2023-02-11T20:19:01.060Z,8.23
2023-02-11T20:21:31.471Z,7.78
2023-02-11T20:23:59.619Z,7.93
2023-02-11T20:26:29.185Z,10.30
2023-02-11T20:28:57.704Z,7.53
2023-02-11T20:31:25.255Z,8.20
2023-02-11T20:33:52.416Z,10.35
2023-02-11T20:36:21.942Z,7.95
2023-02-11T20:38:51.348Z,10.63
2023-02-11T20:41:21.103Z,8.68
2023-02-11T20:43:50.720Z,8.50
2023-02-11T20:46:20.495Z,8.23
2023-02-11T20:48:47.779Z,12.13
2023-02-11T20:51:18.707Z,10.27
2023-02-11T20:53:47.923Z,10.98
2023-02-11T20:56:18.768Z,7.45
2023-02-11T20:58:46.088Z,9.05
2023-02-11T21:01:22.542Z,7.15
2023-02-11T21:03:52.120Z,9.70
2023-02-11T21:06:19.543Z,7.35
2023-02-11T21:08:47.308Z,8.02
2023-02-11T21:11:16.127Z,7.78
2023-02-11T21:13:43.552Z,9.88
2023-02-11T21:16:14.582Z,6.97
2023-02-11T21:18:42.117Z,8.88
2023-02-11T21:21:09.489Z,9.13
2023-02-11T21:23:36.666Z,9.50
2023-02-11T21:26:03.905Z,10.48
2023-02-11T21:28:32.572Z,9.13
2023-02-11T21:30:59.795Z,8.35
2023-02-11T21:33:28.156Z,8.65
2023-02-11T21:35:56.672Z,7.25
2023-02-11T21:38:24.366Z,13.52
2023-02-11T21:40:51.863Z,9.25
2023-02-11T21:43:19.210Z,8.40
2023-02-11T21:45:49.826Z,9.32
2023-02-11T21:48:18.120Z,8.77
2023-02-11T21:50:47.144Z,8.98
2023-02-11T21:53:15.068Z,7.43
2023-02-11T21:55:42.707Z,9.18
2023-02-11T21:58:12.556Z,9.20
2023-02-11T22:00:39.967Z,8.00
2023-02-11T22:03:08.469Z,8.38
2023-02-11T22:05:35.555Z,8.25
2023-02-11T22:08:02.674Z,7.40
2023-02-11T22:10:29.762Z,6.90
2023-02-11T22:12:56.879Z,9.38
2023-02-11T22:15:24.071Z,11.25
2023-02-11T22:17:51.169Z,7.78
2023-02-11T22:20:19.885Z,8.05
2023-02-11T22:22:46.985Z,8.07
2023-02-11T22:25:14.085Z,10.00
2023-02-11T22:27:41.238Z,9.00
2023-02-11T22:30:09.619Z,7.80
2023-02-11T22:32:36.756Z,7.90
2023-02-11T22:35:04.056Z,8.38
2023-02-11T22:37:32.553Z,7.75
2023-02-11T22:39:59.656Z,10.30
2023-02-11T22:42:26.793Z,9.95
2023-02-11T22:44:53.996Z,8.32
2023-02-11T22:47:21.145Z,8.18
2023-02-11T22:49:48.232Z,8.82
2023-02-11T22:52:15.365Z,10.15
2023-02-11T22:54:44.019Z,10.07
2023-02-11T22:57:11.111Z,9.68
2023-02-11T22:59:38.215Z,7.97
2023-02-11T23:02:05.402Z,8.65
2023-02-11T23:04:32.588Z,7.55
2023-02-11T23:06:59.694Z,9.02
2023-02-11T23:09:26.797Z,8.18
2023-02-11T23:11:55.374Z,8.60
2023-02-11T23:14:22.491Z,8.57
2023-02-11T23:16:50.287Z,7.78
2023-02-11T23:19:17.412Z,8.98
2023-02-11T23:21:44.531Z,9.02
2023-02-11T23:24:13.615Z,7.78
2023-02-11T23:26:41.661Z,7.57
2023-02-11T23:29:10.723Z,10.77
2023-02-11T23:31:39.634Z,7.10
2023-02-11T23:34:08.054Z,10.05
2023-02-11T23:36:36.229Z,7.80
2023-02-11T23:39:04.401Z,11.18
2023-02-11T23:41:31.654Z,6.45
2023-02-11T23:43:58.890Z,10.07
2023-02-11T23:46:27.824Z,7.47
2023-02-11T23:48:55.174Z,8.68
2023-02-11T23:51:22.739Z,9.85
2023-02-11T23:53:50.361Z,9.57
2023-02-11T23:56:20.771Z,8.43
2023-02-11T23:58:49.386Z,9.45
